Time;durP1;ratioP1;P1;durP2;ratioP2;P2;SDS_P1;SDS_P2;PMS_P1;PMS_P2;Temp;Humidity;BMP_temperature;BMP_pressure;BME280_temperature;BME280_humidity;BME280_pressure;Samples;Min_cycle;Max_cycle;Signal;HPM_P1;HPM_P2
2023/03/09 00:01:38;;;;;;;;;;;;;;;7.24;75.82;99495.06;5028641;28;19913;-31
2023/03/09 00:04:04;;;;;;;;;;;;;;;7.52;74.14;99501.88;5032198;28;20305;-29
2023/03/09 00:06:29;;;;;;;;;;;;;;;7.27;75.63;99501.78;5031046;28;20387;-30
2023/03/09 00:08:55;;;;;;;;;;;;;;;7.58;73.65;99495.72;5032465;28;20400;-31
2023/03/09 00:11:20;;;;;;;;;;;;;;;7.46;73.75;99502.75;5032599;28;20328;-32
2023/03/09 00:13:46;;;;;;;;;;;;;;;7.43;73.94;99490.69;5032647;28;20266;-30
2023/03/09 00:16:16;;;;;;;;;;;;;;;7.27;73.57;99499.13;5032608;28;20010;-31
2023/03/09 00:18:41;;;;;;;;;;;;;;;7.21;74.15;99487.56;5032390;28;20409;-30
2023/03/09 00:21:07;;;;;;;;;;;;;;;7.15;74.60;99475.16;5032285;28;19917;-30
2023/03/09 00:23:32;;;;;;;;;;;;;;;6.60;75.94;99472.06;5032145;28;20096;-31
2023/03/09 00:26:02;;;;;;;;;;;;;;;6.60;76.27;99480.00;5032391;28;19913;-30
2023/03/09 00:28:27;;;;;;;;;;;;;;;6.71;75.90;99474.06;5032237;28;19913;-31
2023/03/09 00:30:52;;;;;;;;;;;;;;;6.85;75.94;99474.84;5032421;28;19982;-31
2023/03/09 00:33:18;;;;;;;;;;;;;;;6.86;75.97;99462.41;5032011;28;20523;-32
2023/03/09 00:35:43;;;;;;;;;;;;;;;6.84;75.70;99455.47;5041497;28;19921;-32
2023/03/09 00:38:08;;;;;;;;;;;;;;;7.04;74.93;99457.22;5040209;28;20363;-31
2023/03/09 00:40:35;;;;;;;;;;;;;;;7.09;75.51;99456.59;5041046;28;19923;-30
2023/03/09 00:43:01;;;;;;;;;;;;;;;6.56;77.11;99460.22;5041457;28;20063;-33
2023/03/09 00:45:26;;;;;;;;;;;;;;;6.06;79.92;99459.91;5039295;28;20036;-31
2023/03/09 00:47:51;;;;;;;;;;;;;;;5.91;80.47;99455.59;5041900;28;19924;-31
2023/03/09 00:50:16;;;;;;;;;;;;;;;5.10;78.94;99461.72;5040556;28;19952;-30
2023/03/09 00:52:42;;;;;;;;;;;;;;;4.88;84.50;99457.56;5040160;28;19920;-31
2023/03/09 00:55:07;;;;;;;;;;;;;;;5.55;83.73;99462.06;5037192;28;19963;-31
2023/03/09 00:57:34;;;;;;;;;;;;;;;5.83;82.35;99455.78;5031361;28;20400;-30
2023/03/09 00:59:59;;;;;;;;;;;;;;;5.86;83.60;99443.97;5031724;28;19913;-31
2023/03/09 01:02:27;;;;;;;;;;;;;;;6.00;83.83;99446.44;5031570;28;19920;-30
2023/03/09 01:04:53;;;;;;;;;;;;;;;6.16;82.94;99445.22;5031498;28;19967;-33
2023/03/09 01:07:18;;;;;;;;;;;;;;;6.19;81.89;99454.59;5031391;28;20385;-30
2023/03/09 01:09:44;;;;;;;;;;;;;;;6.52;80.21;99459.84;5031809;28;19917;-31
2023/03/09 01:12:09;;;;;;;;;;;;;;;6.31;80.41;99458.22;5031507;28;19913;-32
2023/03/09 01:14:35;;;;;;;;;;;;;;;6.40;80.55;99445.63;5030951;28;19912;-31
2023/03/09 01:17:00;;;;;;;;;;;;;;;6.53;79.95;99439.47;5031440;28;19913;-32
2023/03/09 01:19:26;;;;;;;;;;;;;;;6.49;79.67;99440.91;5031085;28;19921;-30
2023/03/09 01:21:51;;;;;;;;;;;;;;;6.46;79.63;99442.13;5029905;28;20362;-32
2023/03/09 01:24:16;;;;;;;;;;;;;;;6.43;79.77;99446.00;5031512;28;19986;-31
2023/03/09 01:26:44;;;;;;;;;;;;;;;6.44;80.32;99430.94;5029973;28;19917;-30
2023/03/09 01:29:09;;;;;;;;;;;;;;;6.61;78.51;99433.94;5031391;28;20317;-30
2023/03/09 01:31:35;;;;;;;;;;;;;;;6.43;79.51;99432.75;5030868;28;20377;-32
2023/03/09 01:34:00;;;;;;;;;;;;;;;5.97;81.36;99431.00;5031025;28;20546;-32
2023/03/09 01:36:25;;;;;;;;;;;;;;;6.03;81.24;99435.47;5030949;28;19913;-31
2023/03/09 01:38:51;;;;;;;;;;;;;;;6.32;80.45;99422.81;5031378;28;20317;-32
2023/03/09 01:41:17;;;;;;;;;;;;;;;6.60;79.29;99421.72;5030644;28;19921;-31
2023/03/09 01:43:46;;;;;;;;;;;;;;;6.38;79.78;99421.97;5030780;28;19921;-30
2023/03/09 01:46:20;;;;;;;;;;;;;;;6.54;79.68;99417.22;5030583;28;20419;-31
2023/03/09 01:49:06;;;;;;;;;;;;;;;6.49;79.56;99411.75;5030629;28;19913;-31
2023/03/09 01:51:44;;;;;;;;;;;;;;;6.23;79.95;99405.50;5030103;28;19924;-31
2023/03/09 01:54:13;;;;;;;;;;;;;;;6.46;79.04;99414.81;5030893;28;19920;-33
2023/03/09 01:56:40;;;;;;;;;;;;;;;6.41;79.60;99416.25;5030483;28;20008;-31
2023/03/09 01:59:06;;;;;;;;;;;;;;;6.51;79.42;99415.81;5030477;28;19913;-32
2023/03/09 02:01:34;;;;;;;;;;;;;;;6.37;79.37;99408.94;5030486;28;20367;-30
2023/03/09 02:04:02;;;;;;;;;;;;;;;6.40;78.55;99408.53;5030602;28;20058;-31
2023/03/09 02:06:28;;;;;;;;;;;;;;;6.29;79.04;99409.16;5030565;28;19913;-34
2023/03/09 02:09:10;;;;;;;;;;;;;;;6.57;77.16;99403.59;5030061;28;19924;-32
2023/03/09 02:11:36;;;;;;;;;;;;;;;6.52;76.68;99406.03;5030020;28;19920;-31
2023/03/09 02:14:03;;;;;;;;;;;;;;;6.36;76.51;99418.72;5030418;28;19963;-31
2023/03/09 02:16:28;;;;;;;;;;;;;;;6.56;76.00;99417.84;5030265;28;19917;-31
2023/03/09 02:18:53;;;;;;;;;;;;;;;6.10;77.33;99421.41;5030328;28;20460;-30
2023/03/09 02:21:42;;;;;;;;;;;;;;;6.03;78.11;99419.59;5029758;28;20409;-31
2023/03/09 02:24:16;;;;;;;;;;;;;;;6.23;77.73;99424.03;5030089;28;20373;-30
2023/03/09 02:26:47;;;;;;;;;;;;;;;6.26;77.13;99425.47;5029249;28;20468;-31
2023/03/09 02:29:13;;;;;;;;;;;;;;;5.90;79.34;99418.75;5030180;28;19917;-31
2023/03/09 02:31:38;;;;;;;;;;;;;;;5.70;79.98;99418.72;5029972;28;19920;-31
2023/03/09 02:34:04;;;;;;;;;;;;;;;5.26;82.10;99428.03;5030025;28;19917;-31
2023/03/09 02:36:29;;;;;;;;;;;;;;;5.18;82.22;99421.09;5029742;28;19914;-31
2023/03/09 02:38:55;;;;;;;;;;;;;;;4.89;84.74;99414.31;5029793;28;19917;-31
2023/03/09 02:41:20;;;;;;;;;;;;;;;5.45;82.53;99416.66;5029740;28;19928;-30
2023/03/09 02:43:48;;;;;;;;;;;;;;;5.41;82.26;99418.94;5029789;28;20337;-31
2023/03/09 02:46:13;;;;;;;;;;;;;;;5.77;80.11;99408.97;5028492;28;19913;-31
2023/03/09 02:48:39;;;;;;;;;;;;;;;5.79;81.08;99402.47;5029792;28;19924;-32
2023/03/09 02:51:06;;;;;;;;;;;;;;;6.02;78.86;99396.75;5030027;28;19921;-30
2023/03/09 02:53:31;;;;;;;;;;;;;;;6.03;78.49;99393.13;5029297;28;20377;-30
2023/03/09 02:55:56;;;;;;;;;;;;;;;6.27;77.75;99396.13;5029582;28;19944;-31
2023/03/09 02:58:22;;;;;;;;;;;;;;;6.12;78.00;99403.50;5029757;28;19990;-31
2023/03/09 03:00:47;;;;;;;;;;;;;;;5.78;80.39;99422.00;5029604;28;19917;-30
2023/03/09 03:03:12;;;;;;;;;;;;;;;5.49;81.34;99417.09;5029947;28;19924;-30
2023/03/09 03:05:37;;;;;;;;;;;;;;;5.35;82.08;99426.81;5029201;28;19913;-30
2023/03/09 03:08:03;;;;;;;;;;;;;;;5.42;82.14;99419.72;5029473;28;20526;-31
2023/03/09 03:10:28;;;;;;;;;;;;;;;5.30;82.55;99423.97;5029697;28;19920;-30
2023/03/09 03:12:53;;;;;;;;;;;;;;;5.47;80.20;99419.94;5029748;28;19945;-30
2023/03/09 03:15:19;;;;;;;;;;;;;;;5.28;80.89;99426.00;5029259;28;19913;-30
2023/03/09 03:17:44;;;;;;;;;;;;;;;5.00;82.30;99422.47;5029525;28;19974;-30
2023/03/09 03:20:14;;;;;;;;;;;;;;;5.08;82.94;99416.19;5029398;28;19917;-30
2023/03/09 03:22:39;;;;;;;;;;;;;;;5.14;82.25;99410.09;5029383;28;19913;-30
2023/03/09 03:25:05;;;;;;;;;;;;;;;5.68;81.10;99418.13;5029653;28;19952;-31
2023/03/09 03:27:32;;;;;;;;;;;;;;;5.76;79.94;99415.28;5029139;28;19924;-30
2023/03/09 03:29:58;;;;;;;;;;;;;;;5.59;80.93;99422.81;5029521;28;19948;-30
2023/03/09 03:32:25;;;;;;;;;;;;;;;5.89;79.43;99410.00;5029319;28;19913;-30
2023/03/09 03:34:51;;;;;;;;;;;;;;;5.46;80.94;99415.66;5027942;28;19912;-30
2023/03/09 03:37:16;;;;;;;;;;;;;;;5.60;80.05;99412.03;5029393;28;20329;-31
2023/03/09 03:39:42;;;;;;;;;;;;;;;5.16;81.16;99408.06;5033379;28;19917;-30
2023/03/09 03:42:07;;;;;;;;;;;;;;;4.81;83.06;99405.53;5032738;28;19924;-31
2023/03/09 03:44:32;;;;;;;;;;;;;;;5.30;80.98;99416.06;5033305;28;20393;-30
2023/03/09 03:46:58;;;;;;;;;;;;;;;5.42;80.24;99417.09;5033074;28;20055;-30
2023/03/09 03:49:23;;;;;;;;;;;;;;;5.72;80.35;99411.41;5032908;28;19913;-30
2023/03/09 03:51:48;;;;;;;;;;;;;;;5.44;80.95;99415.06;5033103;28;19971;-30
2023/03/09 03:54:14;;;;;;;;;;;;;;;5.50;80.26;99424.03;5032948;28;19917;-30
2023/03/09 03:56:39;;;;;;;;;;;;;;;5.23;81.43;99430.06;5032841;28;19921;-31
2023/03/09 03:59:04;;;;;;;;;;;;;;;4.99;81.98;99435.88;5032833;28;19921;-31
2023/03/09 04:01:29;;;;;;;;;;;;;;;4.77;83.42;99422.78;5032697;28;19920;-30
2023/03/09 04:03:55;;;;;;;;;;;;;;;4.75;82.91;99422.16;5032685;28;19927;-31
2023/03/09 04:06:22;;;;;;;;;;;;;;;4.82;82.39;99415.09;5032500;28;19917;-31
2023/03/09 04:08:48;;;;;;;;;;;;;;;4.97;81.52;99414.13;5031657;28;19970;-31
2023/03/09 04:11:13;;;;;;;;;;;;;;;4.34;84.11;99415.06;5032546;28;19917;-31
2023/03/09 04:13:38;;;;;;;;;;;;;;;4.75;83.08;99424.81;5032908;28;19959;-32
2023/03/09 04:16:04;;;;;;;;;;;;;;;4.96;81.47;99412.50;5032517;28;19917;-31
2023/03/09 04:18:29;;;;;;;;;;;;;;;5.25;80.88;99421.94;5032540;28;20374;-30
2023/03/09 04:20:54;;;;;;;;;;;;;;;5.08;81.40;99420.66;5030893;28;19917;-30
2023/03/09 04:23:20;;;;;;;;;;;;;;;5.03;82.17;99423.91;5031089;28;19956;-29
2023/03/09 04:26:05;;;;;;;;;;;;;;;4.96;82.55;99431.78;5032399;28;19921;-32
2023/03/09 04:28:31;;;;;;;;;;;;;;;5.12;82.18;99438.56;5032119;28;19913;-31
2023/03/09 04:30:56;;;;;;;;;;;;;;;5.24;80.75;99436.97;5032229;28;19999;-31
2023/03/09 04:33:22;;;;;;;;;;;;;;;5.36;81.34;99431.91;5031914;28;19917;-30
2023/03/09 04:35:47;;;;;;;;;;;;;;;5.69;79.46;99430.34;5030916;28;20340;-30
2023/03/09 04:38:13;;;;;;;;;;;;;;;5.65;79.47;99427.28;5032188;28;19961;-30
2023/03/09 04:40:38;;;;;;;;;;;;;;;5.75;79.03;99427.69;5031018;28;20342;-31
2023/03/09 04:43:03;;;;;;;;;;;;;;;5.81;78.72;99432.19;5031762;28;19925;-30
2023/03/09 04:45:29;;;;;;;;;;;;;;;5.86;78.35;99423.63;5031770;28;20408;-30
2023/03/09 04:47:55;;;;;;;;;;;;;;;5.95;79.02;99426.94;5031771;28;19925;-32
2023/03/09 04:50:20;;;;;;;;;;;;;;;5.85;79.10;99440.53;5030884;28;19917;-33
2023/03/09 04:52:46;;;;;;;;;;;;;;;5.95;78.08;99451.56;5031965;28;19913;-32
2023/03/09 04:55:11;;;;;;;;;;;;;;;5.80;80.31;99445.59;5030378;28;19913;-31
2023/03/09 04:57:36;;;;;;;;;;;;;;;5.57;81.49;99441.50;5031586;28;20005;-30
2023/03/09 05:00:04;;;;;;;;;;;;;;;5.90;80.02;99440.72;5031725;28;20356;-30
2023/03/09 05:02:29;;;;;;;;;;;;;;;5.44;82.02;99441.50;5031507;28;20412;-31
2023/03/09 05:04:55;;;;;;;;;;;;;;;5.11;84.16;99436.94;5031753;28;20421;-30
2023/03/09 05:07:20;;;;;;;;;;;;;;;4.76;84.90;99434.38;5031427;28;19925;-30
2023/03/09 05:09:45;;;;;;;;;;;;;;;5.14;82.68;99431.25;5031637;28;20366;-30
2023/03/09 05:12:10;;;;;;;;;;;;;;;5.15;82.33;99432.91;5031631;28;20416;-32
2023/03/09 05:14:36;;;;;;;;;;;;;;;4.92;83.28;99437.69;5031440;28;20003;-31
2023/03/09 05:17:01;;;;;;;;;;;;;;;4.98;83.27;99442.16;5031337;28;19917;-31
2023/03/09 05:19:26;;;;;;;;;;;;;;;4.91;83.67;99431.59;5031396;28;19940;-30
2023/03/09 05:21:52;;;;;;;;;;;;;;;5.11;83.17;99442.22;5031215;28;19975;-31
2023/03/09 05:24:17;;;;;;;;;;;;;;;5.10;82.08;99440.59;5031487;28;20427;-31
2023/03/09 05:26:42;;;;;;;;;;;;;;;5.42;81.79;99443.53;5031101;28;19913;-31
2023/03/09 05:29:07;;;;;;;;;;;;;;;5.52;81.20;99441.31;5031292;28;20344;-30
2023/03/09 05:31:33;;;;;;;;;;;;;;;5.80;80.13;99448.25;5030640;28;20008;-31
2023/03/09 05:33:58;;;;;;;;;;;;;;;5.75;80.78;99456.00;5031080;28;19913;-32
2023/03/09 05:36:24;;;;;;;;;;;;;;;5.68;81.15;99452.50;5031168;28;19916;-30
2023/03/09 05:38:50;;;;;;;;;;;;;;;5.86;80.44;99444.78;5031291;28;20007;-31
2023/03/09 05:41:16;;;;;;;;;;;;;;;5.60;81.85;99450.91;5031082;28;19924;-31
2023/03/09 05:43:42;;;;;;;;;;;;;;;5.41;82.81;99449.81;5030644;28;19925;-30
2023/03/09 05:46:11;;;;;;;;;;;;;;;5.63;82.98;99440.69;5030558;28;19975;-30
2023/03/09 05:48:36;;;;;;;;;;;;;;;6.02;81.50;99435.66;5030961;28;19917;-30
2023/03/09 05:51:02;;;;;;;;;;;;;;;6.38;79.40;99442.34;5030910;28;20022;-30
2023/03/09 05:53:27;;;;;;;;;;;;;;;6.41;80.26;99437.44;5030434;28;20301;-31
2023/03/09 05:55:53;;;;;;;;;;;;;;;6.47;78.29;99440.28;5031053;28;20032;-31
2023/03/09 05:58:18;;;;;;;;;;;;;;;6.34;78.93;99443.78;5030583;28;19913;-30
2023/03/09 06:00:43;;;;;;;;;;;;;;;6.36;79.04;99439.91;5030270;28;19917;-31
2023/03/09 06:03:10;;;;;;;;;;;;;;;6.46;79.76;99438.66;5030532;28;19913;-31
2023/03/09 06:05:36;;;;;;;;;;;;;;;6.76;77.63;99450.41;5030240;28;20373;-30
2023/03/09 06:08:01;;;;;;;;;;;;;;;6.87;78.11;99450.78;5030377;28;19931;-31
2023/03/09 06:10:27;;;;;;;;;;;;;;;7.00;76.89;99443.56;5030300;28;19970;-31
2023/03/09 06:12:52;;;;;;;;;;;;;;;7.38;75.28;99447.28;5029125;28;19916;-31
2023/03/09 06:15:17;;;;;;;;;;;;;;;7.56;74.53;99443.88;5029923;28;19913;-30
2023/03/09 06:17:42;;;;;;;;;;;;;;;7.73;73.72;99434.38;5030154;28;19924;-30
2023/03/09 06:20:08;;;;;;;;;;;;;;;8.16;72.10;99438.13;5030521;28;19912;-31
2023/03/09 06:22:34;;;;;;;;;;;;;;;8.26;72.04;99449.06;5030233;28;19913;-31
2023/03/09 06:24:59;;;;;;;;;;;;;;;8.60;70.07;99454.88;5030259;28;19913;-30
2023/03/09 06:27:24;;;;;;;;;;;;;;;8.68;69.92;99459.09;5029800;28;19951;-32
2023/03/09 06:29:52;;;;;;;;;;;;;;;8.82;69.71;99453.41;5029869;28;19913;-31
2023/03/09 06:32:17;;;;;;;;;;;;;;;9.16;68.34;99464.47;5030184;28;19924;-30
2023/03/09 06:34:42;;;;;;;;;;;;;;;9.39;68.24;99468.25;5030155;28;20003;-30
2023/03/09 06:37:11;;;;;;;;;;;;;;;9.58;67.26;99477.84;5030062;28;19952;-31
2023/03/09 06:39:39;;;;;;;;;;;;;;;9.61;68.19;99472.03;5030106;28;19913;-31
2023/03/09 06:42:05;;;;;;;;;;;;;;;9.94;67.77;99468.06;5029686;28;20381;-31
2023/03/09 06:44:30;;;;;;;;;;;;;;;10.09;67.28;99482.78;5029933;28;19966;-30
2023/03/09 06:46:55;;;;;;;;;;;;;;;10.37;64.71;99477.63;5030004;28;19935;-30
2023/03/09 06:49:21;;;;;;;;;;;;;;;10.36;63.95;99476.03;5029921;28;19944;-31
2023/03/09 06:51:48;;;;;;;;;;;;;;;10.64;63.18;99474.47;5029737;28;20305;-30
2023/03/09 06:54:14;;;;;;;;;;;;;;;10.83;63.07;99467.97;5029641;28;19917;-31
2023/03/09 06:56:39;;;;;;;;;;;;;;;11.21;62.79;99473.78;5029678;28;19920;-31
2023/03/09 06:59:05;;;;;;;;;;;;;;;11.13;61.81;99466.16;5029356;28;19920;-31
2023/03/09 07:01:30;;;;;;;;;;;;;;;11.08;62.19;99464.19;5029635;28;19917;-30
2023/03/09 07:03:58;;;;;;;;;;;;;;;11.31;61.56;99462.50;5028400;28;19917;-30
2023/03/09 07:06:23;;;;;;;;;;;;;;;11.46;62.31;99460.09;5029438;28;19913;-31
2023/03/09 07:08:49;;;;;;;;;;;;;;;11.54;62.78;99462.38;5030044;28;20348;-31
2023/03/09 07:11:14;;;;;;;;;;;;;;;11.95;59.58;99468.47;5029261;28;19983;-31
2023/03/09 07:13:39;;;;;;;;;;;;;;;11.98;59.27;99459.16;5034836;28;19913;-32
2023/03/09 07:16:05;;;;;;;;;;;;;;;12.19;59.45;99454.94;5036438;28;20377;-30
2023/03/09 07:18:30;;;;;;;;;;;;;;;12.17;59.11;99462.38;5036156;28;19913;-31
2023/03/09 07:20:58;;;;;;;;;;;;;;;12.35;59.17;99448.75;5036004;28;19923;-31
2023/03/09 07:23:23;;;;;;;;;;;;;;;12.44;59.07;99444.63;5035885;28;19924;-30
2023/03/09 07:25:48;;;;;;;;;;;;;;;12.29;59.69;99448.94;5035923;28;19913;-31
2023/03/09 07:28:13;;;;;;;;;;;;;;;12.53;58.76;99449.56;5035811;28;20345;-31
2023/03/09 07:30:39;;;;;;;;;;;;;;;12.86;58.27;99456.66;5036167;28;19916;-31
2023/03/09 07:33:04;;;;;;;;;;;;;;;12.93;56.47;99456.47;5035873;28;20405;-30
2023/03/09 07:35:29;;;;;;;;;;;;;;;13.09;56.29;99455.59;5039449;28;19917;-31
2023/03/09 07:37:55;;;;;;;;;;;;;;;13.25;56.26;99451.22;5055780;28;19924;-31
2023/03/09 07:40:20;;;;;;;;;;;;;;;13.49;53.84;99453.66;5055714;28;19946;-32
2023/03/09 07:42:53;;;;;;;;;;;;;;;13.36;54.23;99444.13;5055430;28;20011;-32
2023/03/09 07:45:19;;;;;;;;;;;;;;;13.34;53.70;99441.72;5055246;28;20413;-31
2023/03/09 07:47:44;;;;;;;;;;;;;;;13.52;54.64;99440.53;5055379;28;19913;-30
2023/03/09 07:50:10;;;;;;;;;;;;;;;13.59;53.82;99438.47;5055492;28;20422;-30
2023/03/09 07:52:35;;;;;;;;;;;;;;;13.45;54.03;99437.28;5055634;28;19921;-31
2023/03/09 07:55:01;;;;;;;;;;;;;;;13.77;53.28;99428.44;5055699;28;19919;-30
2023/03/09 07:57:30;;;;;;;;;;;;;;;13.88;52.43;99432.03;5055240;28;19916;-31
2023/03/09 07:59:55;;;;;;;;;;;;;;;13.89;53.11;99429.06;5055383;28;19939;-31
2023/03/09 08:02:21;;;;;;;;;;;;;;;13.99;53.30;99431.81;5055560;28;19939;-31
2023/03/09 08:04:46;;;;;;;;;;;;;;;13.88;50.66;99440.88;5055660;28;19955;-32
2023/03/09 08:07:11;;;;;;;;;;;;;;;14.10;50.99;99434.56;5055590;28;19974;-31
2023/03/09 08:09:37;;;;;;;;;;;;;;;14.05;50.64;99440.72;5055202;28;19960;-31
2023/03/09 08:12:03;;;;;;;;;;;;;;;14.46;51.41;99439.13;5055273;28;19913;-30
2023/03/09 08:14:28;;;;;;;;;;;;;;;14.45;49.69;99440.19;5055773;28;20008;-33
2023/03/09 08:16:53;;;;;;;;;;;;;;;14.86;49.37;99435.03;5055306;28;19919;-31
2023/03/09 08:19:21;;;;;;;;;;;;;;;15.11;48.56;99435.41;5055268;28;19912;-32
2023/03/09 08:21:46;;;;;;;;;;;;;;;15.09;49.43;99432.97;5055487;28;19913;-33
2023/03/09 08:24:12;;;;;;;;;;;;;;;15.23;50.02;99441.34;5053678;28;20400;-32
2023/03/09 08:26:37;;;;;;;;;;;;;;;15.22;49.33;99434.34;5052147;28;19912;-30
2023/03/09 08:29:03;;;;;;;;;;;;;;;15.18;49.41;99428.72;5052126;28;20392;-31
2023/03/09 08:31:28;;;;;;;;;;;;;;;15.16;51.43;99422.81;5052128;28;19936;-31
2023/03/09 08:33:54;;;;;;;;;;;;;;;15.24;50.50;99430.34;5052124;28;19978;-31
2023/03/09 08:36:20;;;;;;;;;;;;;;;15.30;49.83;99430.34;5052149;28;19956;-32
2023/03/09 08:38:48;;;;;;;;;;;;;;;15.36;49.63;99423.91;5050578;28;19960;-34
2023/03/09 08:41:13;;;;;;;;;;;;;;;15.47;48.35;99422.84;5051758;28;20007;-32
2023/03/09 08:43:39;;;;;;;;;;;;;;;15.67;47.69;99425.56;5051717;28;20031;-34
2023/03/09 08:46:04;;;;;;;;;;;;;;;15.62;47.44;99430.94;5051803;28;19912;-31
2023/03/09 08:48:29;;;;;;;;;;;;;;;15.58;48.05;99432.53;5051912;28;19978;-32
2023/03/09 08:50:56;;;;;;;;;;;;;;;15.44;47.56;99428.75;5051671;28;19923;-30
2023/03/09 08:53:22;;;;;;;;;;;;;;;15.45;47.55;99438.44;5051475;28;19916;-30
2023/03/09 08:55:47;;;;;;;;;;;;;;;15.62;47.66;99419.38;5051465;28;19921;-31
2023/03/09 08:58:12;;;;;;;;;;;;;;;15.74;48.55;99424.53;5051730;28;19912;-33
2023/03/09 09:00:37;;;;;;;;;;;;;;;15.85;47.71;99418.88;5051684;28;20027;-31
2023/03/09 09:03:03;;;;;;;;;;;;;;;15.92;47.10;99421.28;5051567;28;19923;-33
2023/03/09 09:05:28;;;;;;;;;;;;;;;15.60;46.80;99425.00;5051183;28;19916;-32
2023/03/09 09:07:54;;;;;;;;;;;;;;;15.80;46.55;99428.81;5051721;28;19912;-32
2023/03/09 09:10:19;;;;;;;;;;;;;;;15.90;46.25;99426.13;5051162;28;19912;-31
2023/03/09 09:12:45;;;;;;;;;;;;;;;16.02;46.32;99433.94;5050067;28;19964;-30
2023/03/09 09:15:13;;;;;;;;;;;;;;;16.00;47.80;99431.50;5051417;28;20435;-31
2023/03/09 09:17:43;;;;;;;;;;;;;;;16.30;46.05;99427.16;5050685;28;19917;-30
2023/03/09 09:20:09;;;;;;;;;;;;;;;16.40;44.15;99423.63;5050880;28;20279;-32
2023/03/09 09:22:34;;;;;;;;;;;;;;;16.41;45.07;99407.22;5051211;28;20373;-32
2023/03/09 09:25:00;;;;;;;;;;;;;;;16.75;45.36;99414.63;5050090;28;19917;-31
2023/03/09 09:27:25;;;;;;;;;;;;;;;17.01;43.57;99411.88;5050936;28;19917;-31
2023/03/09 09:29:52;;;;;;;;;;;;;;;16.93;44.75;99409.75;5050834;28;20311;-31
2023/03/09 09:32:18;;;;;;;;;;;;;;;17.05;43.83;99412.91;5042750;28;19921;-30
2023/03/09 09:34:43;;;;;;;;;;;;;;;17.23;44.08;99403.41;5050711;28;19917;-31
2023/03/09 09:37:10;;;;;;;;;;;;;;;17.06;46.99;99390.28;5050339;28;19975;-30
2023/03/09 09:39:37;;;;;;;;;;;;;;;17.50;44.04;99389.47;5050246;28;19917;-30
2023/03/09 09:42:21;;;;;;;;;;;;;;;17.70;43.28;99390.41;5050643;28;19927;-32
2023/03/09 09:44:51;;;;;;;;;;;;;;;17.71;44.37;99383.91;5050849;28;20013;-31
2023/03/09 09:47:18;;;;;;;;;;;;;;;17.86;43.90;99391.91;5050175;28;20373;-30
2023/03/09 09:49:46;;;;;;;;;;;;;;;17.84;43.72;99383.28;5050508;28;19959;-30
2023/03/09 09:52:30;;;;;;;;;;;;;;;17.95;43.68;99387.50;5050243;28;19940;-30
2023/03/09 09:55:15;;;;;;;;;;;;;;;18.02;43.33;99381.75;5050517;28;19912;-31
2023/03/09 09:57:42;;;;;;;;;;;;;;;18.37;40.36;99383.31;5050172;28;19971;-32
2023/03/09 10:00:16;;;;;;;;;;;;;;;18.28;37.67;99390.41;5050152;28;19944;-31
2023/03/09 10:02:42;;;;;;;;;;;;;;;18.22;36.76;99386.16;5050346;28;20575;-31
2023/03/09 10:05:07;;;;;;;;;;;;;;;18.48;33.07;99390.19;5050268;28;19913;-32
2023/03/09 10:07:36;;;;;;;;;;;;;;;18.56;33.78;99385.25;5048669;28;19924;-33
2023/03/09 10:10:03;;;;;;;;;;;;;;;18.80;36.72;99369.06;5050244;28;19913;-31
2023/03/09 10:12:29;;;;;;;;;;;;;;;18.67;36.32;99375.91;5049977;28;19916;-32
2023/03/09 10:14:58;;;;;;;;;;;;;;;18.66;41.58;99368.91;5049932;28;19916;-30
2023/03/09 10:17:23;;;;;;;;;;;;;;;18.44;42.08;99377.53;5050053;28;19917;-31
2023/03/09 10:19:49;;;;;;;;;;;;;;;18.48;43.42;99367.78;5049884;28;19923;-32
2023/03/09 10:22:16;;;;;;;;;;;;;;;18.52;43.24;99358.00;5050151;28;19950;-31
2023/03/09 10:24:45;;;;;;;;;;;;;;;18.67;43.03;99354.31;5049789;28;20402;-31
2023/03/09 10:27:14;;;;;;;;;;;;;;;18.65;42.54;99348.38;5049866;28;19917;-31
2023/03/09 10:29:43;;;;;;;;;;;;;;;18.86;42.35;99347.06;5049669;28;19974;-32
2023/03/09 10:32:35;;;;;;;;;;;;;;;19.17;41.12;99345.84;5050044;28;19923;-31
2023/03/09 10:35:21;;;;;;;;;;;;;;;19.17;39.45;99345.84;5048670;28;20003;-31
2023/03/09 10:37:50;;;;;;;;;;;;;;;19.79;39.34;99345.66;5049669;28;20014;-31
2023/03/09 10:40:19;;;;;;;;;;;;;;;19.30;38.78;99339.66;5049877;28;19974;-32
2023/03/09 10:42:45;;;;;;;;;;;;;;;19.49;39.79;99336.94;5049842;28;19960;-32
2023/03/09 10:45:29;;;;;;;;;;;;;;;19.82;40.02;99335.06;5049487;28;19955;-33
2023/03/09 10:47:56;;;;;;;;;;;;;;;19.72;36.88;99337.13;5048843;28;19985;-31
2023/03/09 10:50:24;;;;;;;;;;;;;;;19.58;36.69;99329.75;5049487;28;19985;-31
2023/03/09 10:52:50;;;;;;;;;;;;;;;19.35;37.48;99330.66;5048415;28;19913;-30
2023/03/09 10:55:27;;;;;;;;;;;;;;;19.16;38.46;99317.97;5049122;28;19921;-31
2023/03/09 10:57:57;;;;;;;;;;;;;;;19.27;38.61;99314.03;5049565;28;19913;-32
2023/03/09 11:00:23;;;;;;;;;;;;;;;19.14;38.33;99308.56;5049378;28;20356;-32
2023/03/09 11:02:52;;;;;;;;;;;;;;;19.05;38.53;99305.72;5049283;28;19916;-31
2023/03/09 11:05:21;;;;;;;;;;;;;;;18.90;40.06;99295.16;5049110;28;19912;-32
2023/03/09 11:07:52;;;;;;;;;;;;;;;18.83;39.09;99293.63;5049597;28;20039;-31
2023/03/09 11:10:44;;;;;;;;;;;;;;;18.87;38.32;99289.22;5049033;28;19913;-31
2023/03/09 11:13:19;;;;;;;;;;;;;;;18.82;39.07;99273.13;5048741;28;19920;-33
2023/03/09 11:16:05;;;;;;;;;;;;;;;18.92;39.10;99260.53;5049286;28;19913;-33
2023/03/09 11:18:31;;;;;;;;;;;;;;;19.07;39.57;99249.50;5049193;28;19916;-31
2023/03/09 11:20:56;;;;;;;;;;;;;;;19.34;38.79;99251.47;5049349;28;20703;-31
2023/03/09 11:23:27;;;;;;;;;;;;;;;19.35;37.42;99254.97;5048974;28;19917;-33
2023/03/09 11:26:00;;;;;;;;;;;;;;;19.42;37.16;99244.59;5049033;28;19962;-31
2023/03/09 11:28:32;;;;;;;;;;;;;;;19.32;36.38;99242.06;5049288;28;19917;-32
2023/03/09 11:30:57;;;;;;;;;;;;;;;19.64;34.93;99233.91;5049172;28;19971;-31
2023/03/09 11:33:24;;;;;;;;;;;;;;;19.64;33.88;99239.31;5048995;28;19913;-31
2023/03/09 11:35:52;;;;;;;;;;;;;;;19.89;33.23;99233.75;5049162;28;19920;-32
2023/03/09 11:38:21;;;;;;;;;;;;;;;20.03;34.04;99227.22;5049032;28;19920;-31
2023/03/09 11:40:57;;;;;;;;;;;;;;;20.11;35.24;99222.22;5049126;28;19943;-33
2023/03/09 11:43:33;;;;;;;;;;;;;;;20.71;33.35;99221.97;5048977;28;20414;-33
2023/03/09 11:46:00;;;;;;;;;;;;;;;21.70;32.03;99224.69;5049384;28;19960;-31
2023/03/09 11:48:31;;;;;;;;;;;;;;;22.38;30.45;99208.09;5048955;28;19916;-30
2023/03/09 11:51:03;;;;;;;;;;;;;;;22.86;32.39;99196.25;5048816;28;19924;-32
2023/03/09 11:53:41;;;;;;;;;;;;;;;23.18;29.71;99191.44;5049026;28;19999;-31
2023/03/09 11:56:06;;;;;;;;;;;;;;;23.39;29.15;99189.59;5048792;28;19959;-31
2023/03/09 11:58:35;;;;;;;;;;;;;;;23.83;29.67;99189.44;5049864;28;19956;-31
2023/03/09 12:01:07;;;;;;;;;;;;;;;23.93;28.32;99189.06;5052691;28;19922;-32
2023/03/09 12:03:39;;;;;;;;;;;;;;;24.23;27.92;99176.22;5052403;28;20398;-32
2023/03/09 12:06:12;;;;;;;;;;;;;;;24.19;28.02;99174.47;5052821;28;19920;-31
2023/03/09 12:08:43;;;;;;;;;;;;;;;23.45;29.05;99163.00;5052271;28;20347;-31
2023/03/09 12:11:17;;;;;;;;;;;;;;;23.46;29.60;99176.28;5052869;28;19970;-31
2023/03/09 12:13:48;;;;;;;;;;;;;;;23.65;29.45;99164.97;5052581;28;19930;-31
2023/03/09 12:16:28;;;;;;;;;;;;;;;24.41;25.89;99160.50;5052572;28;20451;-31
2023/03/09 12:19:00;;;;;;;;;;;;;;;24.44;26.77;99154.41;5052473;28;19912;-32
2023/03/09 12:21:33;;;;;;;;;;;;;;;24.42;26.26;99162.09;5052140;28;19920;-33
2023/03/09 12:24:01;;;;;;;;;;;;;;;24.02;26.67;99159.03;5052012;28;19913;-32
2023/03/09 12:26:33;;;;;;;;;;;;;;;24.71;25.83;99165.91;5052371;28;19924;-32
2023/03/09 12:29:01;;;;;;;;;;;;;;;25.02;26.15;99156.44;5052127;28;19919;-32
2023/03/09 12:31:31;;;;;;;;;;;;;;;24.57;27.16;99162.66;5051976;28;19917;-32
2023/03/09 12:33:59;;;;;;;;;;;;;;;24.05;27.68;99163.84;5052040;28;19928;-32
2023/03/09 12:36:29;;;;;;;;;;;;;;;24.78;26.27;99163.41;5052202;28;19923;-31
2023/03/09 12:39:13;;;;;;;;;;;;;;;24.36;27.49;99160.72;5051797;28;19917;-34
2023/03/09 12:41:56;;;;;;;;;;;;;;;23.70;27.83;99160.47;5052263;28;20111;-31
2023/03/09 12:44:41;;;;;;;;;;;;;;;23.72;27.12;99166.38;5051739;28;19960;-32
2023/03/09 12:47:20;;;;;;;;;;;;;;;23.93;28.26;99161.81;5050091;28;19920;-32
2023/03/09 12:49:47;;;;;;;;;;;;;;;23.93;26.85;99159.09;5051928;28;19944;-32
2023/03/09 12:52:16;;;;;;;;;;;;;;;24.43;26.08;99155.50;5051647;28;19913;-32
2023/03/09 12:54:42;;;;;;;;;;;;;;;24.70;24.95;99153.38;5051554;28;19913;-31